sensor_id;sensor_type;location;lat;lon;timestamp;pressure;altitude;pressure_sealevel;temperature;humidity
36932;BME280;22847;42.654;23.370;2022-12-01T00:02:04;94933.94;;;6.03;81.60
36932;BME280;22847;42.654;23.370;2022-12-01T00:04:29;94939.38;;;5.87;82.53
36932;BME280;22847;42.654;23.370;2022-12-01T00:06:55;94729.09;;;4.42;83.34
36932;BME280;22847;42.654;23.370;2022-12-01T00:09:20;94887.38;;;5.43;82.78
36932;BME280;22847;42.654;23.370;2022-12-01T00:12:04;94937.88;;;5.59;82.94
36932;BME280;22847;42.654;23.370;2022-12-01T00:14:30;94921.88;;;5.54;83.75
36932;BME280;22847;42.654;23.370;2022-12-01T00:16:56;94921.06;;;5.54;83.74
36932;BME280;22847;42.654;23.370;2022-12-01T00:19:25;94774.03;;;4.40;84.74
36932;BME280;22847;42.654;23.370;2022-12-01T00:21:50;94723.56;;;4.23;84.16
36932;BME280;22847;42.654;23.370;2022-12-01T00:24:16;94787.25;;;4.84;83.79
36932;BME280;22847;42.654;23.370;2022-12-01T00:26:41;94758.00;;;4.47;84.33
36932;BME280;22847;42.654;23.370;2022-12-01T00:29:07;94924.25;;;4.83;87.59
36932;BME280;22847;42.654;23.370;2022-12-01T00:31:33;94895.38;;;5.14;86.19
36932;BME280;22847;42.654;23.370;2022-12-01T00:33:58;94793.81;;;5.01;83.75
36932;BME280;22847;42.654;23.370;2022-12-01T00:36:23;94921.19;;;5.76;83.47
36932;BME280;22847;42.654;23.370;2022-12-01T00:38:53;94693.34;;;4.49;82.28
36932;BME280;22847;42.654;23.370;2022-12-01T00:41:19;94921.25;;;5.51;83.60
36932;BME280;22847;42.654;23.370;2022-12-01T00:43:45;94913.34;;;5.65;82.91
36932;BME280;22847;42.654;23.370;2022-12-01T00:46:11;94920.44;;;5.50;83.28
36932;BME280;22847;42.654;23.370;2022-12-01T00:48:36;94926.97;;;5.43;84.00
36932;BME280;22847;42.654;23.370;2022-12-01T00:51:01;94883.06;;;5.30;84.21
36932;BME280;22847;42.654;23.370;2022-12-01T00:53:27;94911.75;;;5.51;84.44
36932;BME280;22847;42.654;23.370;2022-12-01T00:55:53;94782.63;;;4.64;84.21
36932;BME280;22847;42.654;23.370;2022-12-01T00:58:19;94864.28;;;5.16;83.94
36932;BME280;22847;42.654;23.370;2022-12-01T01:00:45;94894.47;;;5.52;83.65
36932;BME280;22847;42.654;23.370;2022-12-01T01:03:11;94913.81;;;5.82;82.88
36932;BME280;22847;42.654;23.370;2022-12-01T01:05:37;94927.41;;;5.37;84.89
36932;BME280;22847;42.654;23.370;2022-12-01T01:08:07;94919.22;;;5.43;85.08
36932;BME280;22847;42.654;23.370;2022-12-01T01:10:36;94908.34;;;5.02;85.15
36932;BME280;22847;42.654;23.370;2022-12-01T01:13:02;94861.78;;;5.14;84.74
36932;BME280;22847;42.654;23.370;2022-12-01T01:15:27;94347.84;;;2.16;83.09
36932;BME280;22847;42.654;23.370;2022-12-01T01:17:53;94905.66;;;5.52;84.03
36932;BME280;22847;42.654;23.370;2022-12-01T01:20:18;94883.97;;;5.66;84.10
36932;BME280;22847;42.654;23.370;2022-12-01T01:22:43;94897.28;;;5.72;83.64
36932;BME280;22847;42.654;23.370;2022-12-01T01:25:09;94872.25;;;5.49;83.92
36932;BME280;22847;42.654;23.370;2022-12-01T01:27:34;94768.63;;;4.92;83.82
36932;BME280;22847;42.654;23.370;2022-12-01T01:30:00;94885.84;;;5.40;83.69
36932;BME280;22847;42.654;23.370;2022-12-01T01:32:25;94844.63;;;5.26;84.97
36932;BME280;22847;42.654;23.370;2022-12-01T01:34:50;94854.25;;;5.48;84.22
36932;BME280;22847;42.654;23.370;2022-12-01T01:37:16;94928.63;;;5.44;85.08
36932;BME280;22847;42.654;23.370;2022-12-01T01:39:41;94896.22;;;5.51;85.63
36932;BME280;22847;42.654;23.370;2022-12-01T01:42:11;94727.34;;;4.43;85.67
36932;BME280;22847;42.654;23.370;2022-12-01T01:47:37;94677.75;;;4.50;84.21
36932;BME280;22847;42.654;23.370;2022-12-01T01:50:07;94893.66;;;5.75;84.25
36932;BME280;22847;42.654;23.370;2022-12-01T01:52:50;94631.41;;;4.13;83.31
36932;BME280;22847;42.654;23.370;2022-12-01T01:55:17;94798.84;;;5.15;83.91
36932;BME280;22847;42.654;23.370;2022-12-01T01:57:44;94907.09;;;5.80;83.60
36932;BME280;22847;42.654;23.370;2022-12-01T02:00:13;94852.94;;;5.66;83.22
36932;BME280;22847;42.654;23.370;2022-12-01T02:02:41;94668.50;;;4.35;84.24
36932;BME280;22847;42.654;23.370;2022-12-01T02:05:22;94854.28;;;4.99;85.91
36932;BME280;22847;42.654;23.370;2022-12-01T02:07:49;94831.28;;;5.19;85.68
36932;BME280;22847;42.654;23.370;2022-12-01T02:10:15;94867.91;;;5.73;85.17
36932;BME280;22847;42.654;23.370;2022-12-01T02:32:10;94652.75;;;4.15;85.49
36932;BME280;22847;42.654;23.370;2022-12-01T02:34:50;94868.56;;;5.28;86.36
36932;BME280;22847;42.654;23.370;2022-12-01T02:37:46;94724.19;;;4.63;85.35
36932;BME280;22847;42.654;23.370;2022-12-01T02:40:18;94904.53;;;5.44;85.27
36932;BME280;22847;42.654;23.370;2022-12-01T02:43:10;94891.59;;;5.44;85.73
36932;BME280;22847;42.654;23.370;2022-12-01T02:45:57;94860.13;;;5.26;86.98
36932;BME280;22847;42.654;23.370;2022-12-01T02:48:35;94918.88;;;5.11;87.65
36932;BME280;22847;42.654;23.370;2022-12-01T02:51:13;94857.91;;;4.96;87.95
36932;BME280;22847;42.654;23.370;2022-12-01T02:53:40;94861.28;;;5.46;87.13
36932;BME280;22847;42.654;23.370;2022-12-01T02:56:09;94897.47;;;5.22;88.20
36932;BME280;22847;42.654;23.370;2022-12-01T02:58:34;94772.41;;;4.75;88.08
36932;BME280;22847;42.654;23.370;2022-12-01T03:03:42;94896.19;;;5.40;87.38
36932;BME280;22847;42.654;23.370;2022-12-01T03:09:11;94856.63;;;5.74;85.65
36932;BME280;22847;42.654;23.370;2022-12-01T03:12:38;94874.31;;;5.68;84.71
36932;BME280;22847;42.654;23.370;2022-12-01T03:17:28;94852.19;;;5.64;85.32
36932;BME280;22847;42.654;23.370;2022-12-01T03:19:59;94739.19;;;4.58;85.96
36932;BME280;22847;42.654;23.370;2022-12-01T03:22:38;94686.28;;;4.64;84.58
36932;BME280;22847;42.654;23.370;2022-12-01T03:25:06;94846.66;;;5.57;84.62
36932;BME280;22847;42.654;23.370;2022-12-01T03:27:36;94861.13;;;5.60;84.52
36932;BME280;22847;42.654;23.370;2022-12-01T03:30:06;94849.94;;;5.59;84.75
36932;BME280;22847;42.654;23.370;2022-12-01T03:32:45;94822.56;;;5.57;84.13
36932;BME280;22847;42.654;23.370;2022-12-01T03:35:18;94828.81;;;5.65;83.17
36932;BME280;22847;42.654;23.370;2022-12-01T03:38:02;94853.69;;;5.55;84.16
36932;BME280;22847;42.654;23.370;2022-12-01T03:40:31;94693.59;;;4.70;84.18
36932;BME280;22847;42.654;23.370;2022-12-01T03:43:04;94808.19;;;5.53;83.57
36932;BME280;22847;42.654;23.370;2022-12-01T03:46:06;94826.13;;;5.43;83.56
36932;BME280;22847;42.654;23.370;2022-12-01T03:48:35;94852.53;;;5.83;83.33
36932;BME280;22847;42.654;23.370;2022-12-01T03:54:07;94828.38;;;4.87;87.01
36932;BME280;22847;42.654;23.370;2022-12-01T03:56:43;94847.06;;;4.91;87.73
36932;BME280;22847;42.654;23.370;2022-12-01T03:59:12;94589.22;;;4.01;85.21
36932;BME280;22847;42.654;23.370;2022-12-01T04:01:39;94676.88;;;4.26;86.09
36932;BME280;22847;42.654;23.370;2022-12-01T04:04:06;94842.59;;;5.06;87.95
36932;BME280;22847;42.654;23.370;2022-12-01T04:06:33;94845.16;;;5.42;87.24
36932;BME280;22847;42.654;23.370;2022-12-01T04:08:59;94647.75;;;3.88;88.74
36932;BME280;22847;42.654;23.370;2022-12-01T04:11:24;94818.84;;;4.88;88.33
36932;BME280;22847;42.654;23.370;2022-12-01T04:14:08;94615.03;;;3.88;88.14
36932;BME280;22847;42.654;23.370;2022-12-01T04:16:33;94693.78;;;4.43;87.27
36932;BME280;22847;42.654;23.370;2022-12-01T04:18:59;94700.84;;;4.16;89.48
36932;BME280;22847;42.654;23.370;2022-12-01T04:21:24;94869.53;;;5.14;89.19
36932;BME280;22847;42.654;23.370;2022-12-01T04:23:50;94849.97;;;5.35;88.44
36932;BME280;22847;42.654;23.370;2022-12-01T04:26:24;94857.50;;;5.02;90.04
36932;BME280;22847;42.654;23.370;2022-12-01T04:28:49;94862.66;;;5.02;90.34
36932;BME280;22847;42.654;23.370;2022-12-01T04:31:15;94618.50;;;3.51;90.31
36932;BME280;22847;42.654;23.370;2022-12-01T04:33:41;94889.44;;;4.88;90.79
36932;BME280;22847;42.654;23.370;2022-12-01T04:36:07;94886.38;;;5.20;88.95
36932;BME280;22847;42.654;23.370;2022-12-01T04:38:32;94866.44;;;5.22;89.33
36932;BME280;22847;42.654;23.370;2022-12-01T04:41:06;94817.66;;;5.05;88.54
36932;BME280;22847;42.654;23.370;2022-12-01T04:43:32;94611.25;;;3.56;89.33
36932;BME280;22847;42.654;23.370;2022-12-01T04:45:57;94867.34;;;4.84;90.49
36932;BME280;22847;42.654;23.370;2022-12-01T04:48:23;94877.94;;;5.18;89.91
36932;BME280;22847;42.654;23.370;2022-12-01T04:50:48;94866.53;;;4.71;91.88
36932;BME280;22847;42.654;23.370;2022-12-01T04:53:14;94740.09;;;3.95;90.51
36932;BME280;22847;42.654;23.370;2022-12-01T04:55:39;94636.22;;;3.43;91.05
36932;BME280;22847;42.654;23.370;2022-12-01T04:58:05;94844.19;;;4.83;89.82
36932;BME280;22847;42.654;23.370;2022-12-01T05:00:31;94772.06;;;4.31;91.28
36932;BME280;22847;42.654;23.370;2022-12-01T05:02:56;94875.44;;;5.16;89.93
36932;BME280;22847;42.654;23.370;2022-12-01T05:05:23;94646.41;;;3.57;90.00
36932;BME280;22847;42.654;23.370;2022-12-01T05:07:50;94636.41;;;3.27;92.23
36932;BME280;22847;42.654;23.370;2022-12-01T05:10:15;94859.16;;;4.78;91.17
36932;BME280;22847;42.654;23.370;2022-12-01T05:12:43;94893.25;;;4.95;90.64
36932;BME280;22847;42.654;23.370;2022-12-01T05:15:10;94848.84;;;4.90;90.26
36932;BME280;22847;42.654;23.370;2022-12-01T05:17:36;94797.25;;;4.40;90.15
36932;BME280;22847;42.654;23.370;2022-12-01T05:20:02;94875.94;;;5.21;88.50
36932;BME280;22847;42.654;23.370;2022-12-01T05:23:03;94679.63;;;3.87;89.34
36932;BME280;22847;42.654;23.370;2022-12-01T05:25:28;94696.31;;;4.07;88.83
36932;BME280;22847;42.654;23.370;2022-12-01T05:27:54;94774.56;;;4.69;88.15
36932;BME280;22847;42.654;23.370;2022-12-01T05:30:19;94648.28;;;3.80;88.37
36932;BME280;22847;42.654;23.370;2022-12-01T05:32:45;94936.66;;;4.78;90.11
36932;BME280;22847;42.654;23.370;2022-12-01T05:35:10;94685.50;;;3.76;90.05
36932;BME280;22847;42.654;23.370;2022-12-01T05:37:36;94832.53;;;4.52;89.99
36932;BME280;22847;42.654;23.370;2022-12-01T05:40:01;94862.69;;;4.89;87.83
36932;BME280;22847;42.654;23.370;2022-12-01T05:42:26;94745.25;;;3.95;89.75
36932;BME280;22847;42.654;23.370;2022-12-01T05:44:52;94873.31;;;4.98;88.34
36932;BME280;22847;42.654;23.370;2022-12-01T05:47:17;94910.03;;;5.39;86.53
36932;BME280;22847;42.654;23.370;2022-12-01T05:49:43;94905.06;;;5.00;88.39
36932;BME280;22847;42.654;23.370;2022-12-01T05:52:08;94810.31;;;4.75;87.47
36932;BME280;22847;42.654;23.370;2022-12-01T05:54:33;94869.41;;;4.79;86.66
36932;BME280;22847;42.654;23.370;2022-12-01T05:56:59;94770.78;;;4.62;86.35
36932;BME280;22847;42.654;23.370;2022-12-01T05:59:24;94778.50;;;4.74;85.15
36932;BME280;22847;42.654;23.370;2022-12-01T06:01:50;94858.81;;;5.44;83.18
36932;BME280;22847;42.654;23.370;2022-12-01T06:04:15;94663.38;;;4.23;83.28
36932;BME280;22847;42.654;23.370;2022-12-01T06:06:41;94754.66;;;4.71;83.49
36932;BME280;22847;42.654;23.370;2022-12-01T06:09:06;94830.03;;;5.25;82.90
36932;BME280;22847;42.654;23.370;2022-12-01T06:11:33;94843.97;;;5.22;82.98
36932;BME280;22847;42.654;23.370;2022-12-01T06:13:58;94856.50;;;5.52;81.97
36932;BME280;22847;42.654;23.370;2022-12-01T06:16:23;94708.81;;;4.62;82.07
36932;BME280;22847;42.654;23.370;2022-12-01T06:18:49;94881.06;;;5.70;82.12
36932;BME280;22847;42.654;23.370;2022-12-01T06:21:14;94890.34;;;5.49;82.95
36932;BME280;22847;42.654;23.370;2022-12-01T06:23:40;94880.44;;;5.43;83.53
36932;BME280;22847;42.654;23.370;2022-12-01T06:26:05;94870.78;;;5.45;82.87
36932;BME280;22847;42.654;23.370;2022-12-01T06:28:30;94651.31;;;4.11;82.37
36932;BME280;22847;42.654;23.370;2022-12-01T06:30:56;94880.38;;;5.19;84.09
36932;BME280;22847;42.654;23.370;2022-12-01T06:33:21;94843.31;;;5.08;83.15
36932;BME280;22847;42.654;23.370;2022-12-01T06:35:47;94744.91;;;4.74;82.59
36932;BME280;22847;42.654;23.370;2022-12-01T06:38:12;94490.19;;;2.67;83.50
36932;BME280;22847;42.654;23.370;2022-12-01T06:40:37;94851.25;;;5.05;83.74
36932;BME280;22847;42.654;23.370;2022-12-01T06:43:03;94875.34;;;5.42;82.34
36932;BME280;22847;42.654;23.370;2022-12-01T06:45:29;94821.53;;;4.50;84.85
36932;BME280;22847;42.654;23.370;2022-12-01T06:47:55;94912.19;;;4.58;85.90
36932;BME280;22847;42.654;23.370;2022-12-01T06:50:22;94656.50;;;3.35;85.15
36932;BME280;22847;42.654;23.370;2022-12-01T06:52:47;94805.69;;;4.42;84.45
36932;BME280;22847;42.654;23.370;2022-12-01T06:55:13;94869.41;;;4.79;84.97
36932;BME280;22847;42.654;23.370;2022-12-01T06:57:38;94638.78;;;3.43;84.46
36932;BME280;22847;42.654;23.370;2022-12-01T07:00:05;94834.63;;;4.47;84.14
36932;BME280;22847;42.654;23.370;2022-12-01T07:02:30;94859.19;;;4.90;83.29
36932;BME280;22847;42.654;23.370;2022-12-01T07:04:56;94786.50;;;4.46;83.55
36932;BME280;22847;42.654;23.370;2022-12-01T07:07:21;94871.63;;;5.09;82.78
36932;BME280;22847;42.654;23.370;2022-12-01T07:09:47;94901.72;;;5.10;82.62
36932;BME280;22847;42.654;23.370;2022-12-01T07:12:12;94630.44;;;3.27;84.39
36932;BME280;22847;42.654;23.370;2022-12-01T07:14:38;94888.09;;;4.83;83.46
36932;BME280;22847;42.654;23.370;2022-12-01T07:17:04;94714.91;;;3.86;83.33
36932;BME280;22847;42.654;23.370;2022-12-01T07:19:29;94682.78;;;4.16;81.75
36932;BME280;22847;42.654;23.370;2022-12-01T07:21:55;94717.06;;;4.18;82.56
36932;BME280;22847;42.654;23.370;2022-12-01T07:24:20;94912.34;;;5.18;82.59
36932;BME280;22847;42.654;23.370;2022-12-01T07:26:45;94662.31;;;3.76;81.58
36932;BME280;22847;42.654;23.370;2022-12-01T07:29:12;94844.19;;;4.83;81.57
36932;BME280;22847;42.654;23.370;2022-12-01T07:31:38;94868.03;;;4.99;82.15
36932;BME280;22847;42.654;23.370;2022-12-01T07:34:04;94837.03;;;4.86;82.25
36932;BME280;22847;42.654;23.370;2022-12-01T07:36:29;94874.69;;;5.27;81.61
36932;BME280;22847;42.654;23.370;2022-12-01T07:38:55;94887.88;;;4.99;82.86
36932;BME280;22847;42.654;23.370;2022-12-01T07:41:21;94721.31;;;3.93;82.88
36932;BME280;22847;42.654;23.370;2022-12-01T07:43:46;94894.38;;;4.91;82.94
36932;BME280;22847;42.654;23.370;2022-12-01T07:46:15;94902.50;;;5.23;83.11
36932;BME280;22847;42.654;23.370;2022-12-01T07:48:42;94910.00;;;5.03;82.94
36932;BME280;22847;42.654;23.370;2022-12-01T07:51:09;94800.44;;;4.43;83.05
36932;BME280;22847;42.654;23.370;2022-12-01T07:53:35;94894.56;;;5.26;83.42
36932;BME280;22847;42.654;23.370;2022-12-01T07:56:01;94861.13;;;4.74;83.48
36932;BME280;22847;42.654;23.370;2022-12-01T07:58:26;94880.94;;;5.12;82.96
36932;BME280;22847;42.654;23.370;2022-12-01T08:00:52;94865.59;;;4.85;83.64
36932;BME280;22847;42.654;23.370;2022-12-01T08:03:18;94907.22;;;4.42;86.06
36932;BME280;22847;42.654;23.370;2022-12-01T08:05:44;94844.31;;;4.43;85.32
36932;BME280;22847;42.654;23.370;2022-12-01T08:08:10;94789.81;;;3.97;85.17
36932;BME280;22847;42.654;23.370;2022-12-01T08:10:35;94902.78;;;4.57;86.40
36932;BME280;22847;42.654;23.370;2022-12-01T08:13:01;94916.94;;;4.77;85.42
36932;BME280;22847;42.654;23.370;2022-12-01T08:15:27;94900.19;;;4.95;84.96
36932;BME280;22847;42.654;23.370;2022-12-01T08:17:52;94765.53;;;3.87;84.34
36932;BME280;22847;42.654;23.370;2022-12-01T08:20:18;94680.13;;;3.41;85.88
36932;BME280;22847;42.654;23.370;2022-12-01T08:22:45;94755.22;;;3.62;86.40
36932;BME280;22847;42.654;23.370;2022-12-01T08:25:11;94912.97;;;4.46;87.42
36932;BME280;22847;42.654;23.370;2022-12-01T08:27:36;94903.09;;;4.40;86.97
36932;BME280;22847;42.654;23.370;2022-12-01T08:30:02;94867.00;;;4.00;86.88
36932;BME280;22847;42.654;23.370;2022-12-01T08:32:28;94958.75;;;4.69;85.89
36932;BME280;22847;42.654;23.370;2022-12-01T08:34:54;94891.84;;;4.66;85.76
36932;BME280;22847;42.654;23.370;2022-12-01T08:37:20;94808.00;;;4.21;85.89
36932;BME280;22847;42.654;23.370;2022-12-01T08:39:45;94912.09;;;4.72;84.76
36932;BME280;22847;42.654;23.370;2022-12-01T08:42:10;94848.66;;;4.43;85.41
36932;BME280;22847;42.654;23.370;2022-12-01T08:44:36;94626.28;;;3.11;85.02
36932;BME280;22847;42.654;23.370;2022-12-01T08:47:01;94900.03;;;5.09;84.32
36932;BME280;22847;42.654;23.370;2022-12-01T08:49:27;94870.66;;;4.61;85.21
36932;BME280;22847;42.654;23.370;2022-12-01T08:51:52;94900.81;;;4.73;85.92
36932;BME280;22847;42.654;23.370;2022-12-01T08:54:17;94674.25;;;3.39;85.17
36932;BME280;22847;42.654;23.370;2022-12-01T08:56:44;94896.19;;;4.53;85.09
36932;BME280;22847;42.654;23.370;2022-12-01T08:59:09;94929.84;;;5.02;84.69
36932;BME280;22847;42.654;23.370;2022-12-01T09:01:35;94623.53;;;3.40;84.22
36932;BME280;22847;42.654;23.370;2022-12-01T09:04:17;94895.75;;;4.84;83.69
36932;BME280;22847;42.654;23.370;2022-12-01T09:06:44;94889.75;;;4.46;85.28
36932;BME280;22847;42.654;23.370;2022-12-01T09:09:16;94922.72;;;4.93;84.54
36932;BME280;22847;42.654;23.370;2022-12-01T09:11:42;94916.53;;;4.70;84.89
36932;BME280;22847;42.654;23.370;2022-12-01T09:14:08;94914.56;;;4.48;85.53
36932;BME280;22847;42.654;23.370;2022-12-01T09:16:34;94894.69;;;4.87;84.62
36932;BME280;22847;42.654;23.370;2022-12-01T09:19:00;94885.31;;;4.99;83.55
36932;BME280;22847;42.654;23.370;2022-12-01T09:21:28;94889.25;;;4.66;83.54
36932;BME280;22847;42.654;23.370;2022-12-01T09:23:57;94858.31;;;5.03;83.04
36932;BME280;22847;42.654;23.370;2022-12-01T09:26:24;94796.50;;;3.87;82.53
36932;BME280;22847;42.654;23.370;2022-12-01T09:28:53;94804.25;;;4.63;82.46
36932;BME280;22847;42.654;23.370;2022-12-01T09:31:18;94848.16;;;4.63;83.58
36932;BME280;22847;42.654;23.370;2022-12-01T09:33:45;94869.50;;;4.90;83.27
36932;BME280;22847;42.654;23.370;2022-12-01T09:36:11;94627.66;;;3.68;82.40
36932;BME280;22847;42.654;23.370;2022-12-01T09:38:37;94878.13;;;5.15;81.80
36932;BME280;22847;42.654;23.370;2022-12-01T09:43:44;94806.59;;;4.79;82.62
36932;BME280;22847;42.654;23.370;2022-12-01T09:46:18;94767.63;;;3.95;84.72
36932;BME280;22847;42.654;23.370;2022-12-01T09:48:46;94638.56;;;3.33;84.33
36932;BME280;22847;42.654;23.370;2022-12-01T09:51:14;94608.16;;;3.13;84.90
36932;BME280;22847;42.654;23.370;2022-12-01T09:53:41;94686.22;;;3.66;84.45
36932;BME280;22847;42.654;23.370;2022-12-01T09:56:24;94903.59;;;4.70;85.04
36932;BME280;22847;42.654;23.370;2022-12-01T09:59:02;94632.63;;;3.33;85.61
36932;BME280;22847;42.654;23.370;2022-12-01T10:01:35;94845.53;;;4.88;85.41
36932;BME280;22847;42.654;23.370;2022-12-01T10:04:28;94618.50;;;3.64;84.93
36932;BME280;22847;42.654;23.370;2022-12-01T10:07:20;94847.88;;;5.04;85.27
36932;BME280;22847;42.654;23.370;2022-12-01T10:10:06;94659.56;;;4.16;84.16
36932;BME280;22847;42.654;23.370;2022-12-01T10:12:33;94830.91;;;5.13;83.64
36932;BME280;22847;42.654;23.370;2022-12-01T10:23:48;94832.53;;;5.14;84.11
36932;BME280;22847;42.654;23.370;2022-12-01T10:26:27;94841.13;;;5.14;84.36
36932;BME280;22847;42.654;23.370;2022-12-01T10:29:11;94844.19;;;5.19;84.10
36932;BME280;22847;42.654;23.370;2022-12-01T10:31:53;94846.66;;;4.84;85.10
36932;BME280;22847;42.654;23.370;2022-12-01T10:34:26;94836.72;;;5.04;85.04
36932;BME280;22847;42.654;23.370;2022-12-01T10:36:52;94794.97;;;4.97;84.29
36932;BME280;22847;42.654;23.370;2022-12-01T10:39:29;94751.13;;;4.72;83.66
36932;BME280;22847;42.654;23.370;2022-12-01T10:44:28;94851.34;;;5.16;84.30
36932;BME280;22847;42.654;23.370;2022-12-01T10:46:54;94830.53;;;5.30;83.08
36932;BME280;22847;42.654;23.370;2022-12-01T10:49:37;94852.63;;;4.98;83.34
36932;BME280;22847;42.654;23.370;2022-12-01T10:52:03;94833.50;;;5.36;82.28
36932;BME280;22847;42.654;23.370;2022-12-01T10:54:37;94791.56;;;4.47;82.80
36932;BME280;22847;42.654;23.370;2022-12-01T10:57:05;94820.56;;;5.00;82.43
36932;BME280;22847;42.654;23.370;2022-12-01T11:00:04;94828.19;;;4.90;83.01
36932;BME280;22847;42.654;23.370;2022-12-01T11:02:30;94811.81;;;5.03;81.75
36932;BME280;22847;42.654;23.370;2022-12-01T11:04:59;94834.16;;;5.51;81.05
36932;BME280;22847;42.654;23.370;2022-12-01T11:07:32;94590.91;;;4.26;80.09
36932;BME280;22847;42.654;23.370;2022-12-01T11:10:17;94816.81;;;5.40;81.75
36932;BME280;22847;42.654;23.370;2022-12-01T11:12:52;94819.00;;;5.10;82.56
36932;BME280;22847;42.654;23.370;2022-12-01T11:15:23;94778.69;;;5.31;80.70
36932;BME280;22847;42.654;23.370;2022-12-01T11:17:58;94643.56;;;4.11;82.09
36932;BME280;22847;42.654;23.370;2022-12-01T11:28:52;94812.66;;;5.51;80.78
36932;BME280;22847;42.654;23.370;2022-12-01T11:31:20;94752.38;;;5.03;80.39
36932;BME280;22847;42.654;23.370;2022-12-01T11:33:50;94816.81;;;5.17;81.11
36932;BME280;22847;42.654;23.370;2022-12-01T11:36:35;94811.50;;;5.31;81.00
36932;BME280;22847;42.654;23.370;2022-12-01T11:39:02;94833.03;;;5.19;81.14
36932;BME280;22847;42.654;23.370;2022-12-01T11:41:39;94810.84;;;5.40;80.67
36932;BME280;22847;42.654;23.370;2022-12-01T11:44:16;94736.59;;;4.94;80.27
36932;BME280;22847;42.654;23.370;2022-12-01T11:46:42;94849.78;;;5.26;79.94
36932;BME280;22847;42.654;23.370;2022-12-01T11:49:19;94781.78;;;4.89;80.59
36932;BME280;22847;42.654;23.370;2022-12-01T11:51:45;94771.16;;;5.05;80.12
36932;BME280;22847;42.654;23.370;2022-12-01T11:54:25;94801.97;;;5.55;79.59
36932;BME280;22847;42.654;23.370;2022-12-01T11:56:52;94798.69;;;5.29;80.12
36932;BME280;22847;42.654;23.370;2022-12-01T11:59:27;94774.25;;;5.10;79.96
36932;BME280;22847;42.654;23.370;2022-12-01T12:08:10;94813.19;;;5.19;81.35
36932;BME280;22847;42.654;23.370;2022-12-01T12:14:07;94815.53;;;5.22;80.57
36932;BME280;22847;42.654;23.370;2022-12-01T12:19:42;94812.88;;;5.24;80.69
36932;BME280;22847;42.654;23.370;2022-12-01T12:30:28;94783.94;;;4.82;82.12
36932;BME280;22847;42.654;23.370;2022-12-01T12:36:05;94820.38;;;5.27;81.67
36932;BME280;22847;42.654;23.370;2022-12-01T12:49:44;94809.72;;;5.08;80.74
36932;BME280;22847;42.654;23.370;2022-12-01T12:52:26;94842.41;;;5.09;81.82
36932;BME280;22847;42.654;23.370;2022-12-01T12:54:55;94839.72;;;4.98;82.28
36932;BME280;22847;42.654;23.370;2022-12-01T12:57:43;94820.72;;;5.22;81.30
36932;BME280;22847;42.654;23.370;2022-12-01T13:00:23;94855.63;;;5.04;82.28
36932;BME280;22847;42.654;23.370;2022-12-01T13:03:15;94818.81;;;5.01;83.27
36932;BME280;22847;42.654;23.370;2022-12-01T13:08:30;94826.50;;;4.89;82.33
36932;BME280;22847;42.654;23.370;2022-12-01T13:11:19;94817.03;;;5.14;82.25
36932;BME280;22847;42.654;23.370;2022-12-01T13:14:14;94806.91;;;5.11;82.09
36932;BME280;22847;42.654;23.370;2022-12-01T13:16:52;94813.31;;;5.18;81.58
36932;BME280;22847;42.654;23.370;2022-12-01T13:19:27;94826.84;;;5.21;81.39
36932;BME280;22847;42.654;23.370;2022-12-01T13:21:54;94829.25;;;5.12;81.49
36932;BME280;22847;42.654;23.370;2022-12-01T13:24:22;94736.47;;;4.72;80.57
36932;BME280;22847;42.654;23.370;2022-12-01T13:27:28;94827.88;;;5.19;81.26
36932;BME280;22847;42.654;23.370;2022-12-01T13:29:48;94835.75;;;5.17;82.09
36932;BME280;22847;42.654;23.370;2022-12-01T13:32:31;94622.56;;;4.04;80.68
36932;BME280;22847;42.654;23.370;2022-12-01T13:34:59;94832.88;;;5.33;80.76
36932;BME280;22847;42.654;23.370;2022-12-01T13:37:37;94875.34;;;5.42;80.31
36932;BME280;22847;42.654;23.370;2022-12-01T13:40:21;94772.59;;;4.85;80.73
36932;BME280;22847;42.654;23.370;2022-12-01T13:43:03;94822.81;;;5.17;80.57
36932;BME280;22847;42.654;23.370;2022-12-01T13:45:35;94819.91;;;4.85;82.67
36932;BME280;22847;42.654;23.370;2022-12-01T13:48:02;94793.44;;;4.94;81.97
36932;BME280;22847;42.654;23.370;2022-12-01T13:50:55;94817.66;;;5.17;81.49
36932;BME280;22847;42.654;23.370;2022-12-01T13:53:29;94829.09;;;5.26;80.85
36932;BME280;22847;42.654;23.370;2022-12-01T13:56:05;94833.38;;;5.38;81.09
36932;BME280;22847;42.654;23.370;2022-12-01T13:58:52;94810.38;;;4.99;81.68
36932;BME280;22847;42.654;23.370;2022-12-01T14:06:39;94819.28;;;5.18;80.21
36932;BME280;22847;42.654;23.370;2022-12-01T14:09:26;94703.78;;;4.47;79.70
36932;BME280;22847;42.654;23.370;2022-12-01T14:11:59;94828.56;;;5.33;79.31
36932;BME280;22847;42.654;23.370;2022-12-01T14:14:28;94682.97;;;4.25;79.36
36932;BME280;22847;42.654;23.370;2022-12-01T14:16:57;94779.09;;;5.14;78.69
36932;BME280;22847;42.654;23.370;2022-12-01T14:19:50;94787.63;;;5.04;79.22
36932;BME280;22847;42.654;23.370;2022-12-01T14:22:42;94833.13;;;5.30;78.71
36932;BME280;22847;42.654;23.370;2022-12-01T14:25:22;94688.22;;;4.36;78.88
36932;BME280;22847;42.654;23.370;2022-12-01T14:27:55;94656.91;;;4.04;79.15
36932;BME280;22847;42.654;23.370;2022-12-01T14:33:44;94833.47;;;4.76;80.74
36932;BME280;22847;42.654;23.370;2022-12-01T14:41:24;94616.97;;;3.97;78.99
36932;BME280;22847;42.654;23.370;2022-12-01T14:43:54;94628.06;;;3.74;79.03
36932;BME280;22847;42.654;23.370;2022-12-01T14:46:37;94617.22;;;3.82;79.27
36932;BME280;22847;42.654;23.370;2022-12-01T14:49:09;94678.25;;;4.07;79.45
36932;BME280;22847;42.654;23.370;2022-12-01T14:51:36;94852.53;;;4.86;80.04
36932;BME280;22847;42.654;23.370;2022-12-01T14:54:09;94844.81;;;4.74;80.32
36932;BME280;22847;42.654;23.370;2022-12-01T14:56:39;94882.91;;;5.08;79.62
36932;BME280;22847;42.654;23.370;2022-12-01T14:59:19;94681.25;;;3.88;79.87
36932;BME280;22847;42.654;23.370;2022-12-01T15:01:48;94856.34;;;5.06;79.54
36932;BME280;22847;42.654;23.370;2022-12-01T15:04:15;94633.44;;;3.71;79.10